createdAt,value
2018-04-01T00:00:09.009Z,98125.50
2018-04-01T00:02:34.973Z,98120.17
2018-04-01T00:05:00.913Z,98129.44
2018-04-01T00:07:26.886Z,98134.50
2018-04-01T00:09:52.814Z,98139.30
2018-04-01T00:12:18.744Z,98136.91
2018-04-01T00:14:44.685Z,98140.64
2018-04-01T00:17:10.601Z,98146.95
2018-04-01T00:19:36.545Z,98139.86
2018-04-01T00:22:02.480Z,98140.63
2018-04-01T00:24:28.419Z,98140.34
2018-04-01T00:26:54.353Z,98148.19
2018-04-01T00:29:20.327Z,98143.61
2018-04-01T00:31:46.281Z,98141.97
2018-04-01T00:34:12.257Z,98142.73
2018-04-01T00:36:38.197Z,98139.64
2018-04-01T00:39:04.133Z,98146.95
2018-04-01T00:41:30.077Z,98139.55
2018-04-01T00:43:56.009Z,98142.05
2018-04-01T00:46:21.990Z,98144.69
2018-04-01T00:48:47.932Z,98144.84
2018-04-01T00:51:13.873Z,98143.52
2018-04-01T00:53:39.808Z,98156.05
2018-04-01T00:56:05.732Z,98153.52
2018-04-01T00:58:31.705Z,98147.72
2018-04-01T01:00:57.635Z,98148.47
2018-04-01T01:03:23.549Z,98158.75
2018-04-01T01:05:49.487Z,98149.23
2018-04-01T01:08:15.411Z,98141.58
2018-04-01T01:10:41.391Z,98142.19
2018-04-01T01:13:07.335Z,98142.34
2018-04-01T01:15:33.295Z,98141.80
2018-04-01T01:17:59.287Z,98147.88
2018-04-01T01:20:25.167Z,98154.38
2018-04-01T01:22:51.107Z,98152.72
2018-04-01T01:25:17.055Z,98144.71
2018-04-01T01:27:42.973Z,98147.55
2018-04-01T01:30:08.890Z,98143.11
2018-04-01T01:32:34.858Z,98140.94
2018-04-01T01:35:00.805Z,98138.19
2018-04-01T01:37:26.770Z,98141.43
2018-04-01T01:39:52.725Z,98139.25
2018-04-01T01:42:18.672Z,98136.53
2018-04-01T01:44:44.618Z,98145.08
2018-04-01T01:47:10.557Z,98141.20
2018-04-01T01:49:36.509Z,98136.46
2018-04-01T01:52:02.457Z,98139.96
2018-04-01T01:54:28.510Z,98152.60
2018-04-01T01:56:54.449Z,98157.45
2018-04-01T01:59:20.377Z,98161.22
2018-04-01T02:01:46.313Z,98144.03
2018-04-01T02:04:12.258Z,98149.04
2018-04-01T02:06:38.170Z,98146.86
2018-04-01T02:09:04.112Z,98153.00
2018-04-01T02:11:30.062Z,98158.87
2018-04-01T02:13:56.010Z,98149.63
2018-04-01T02:16:21.956Z,98148.47
2018-04-01T02:18:47.915Z,98161.50
2018-04-01T02:21:13.868Z,98156.24
2018-04-01T02:23:40.150Z,98164.11
2018-04-01T02:26:06.081Z,98159.98
2018-04-01T02:28:32.021Z,98165.72
2018-04-01T02:30:57.987Z,98166.66
2018-04-01T02:33:23.914Z,98167.31
2018-04-01T02:35:49.859Z,98178.92
2018-04-01T02:38:15.811Z,98172.52
2018-04-01T02:40:41.737Z,98174.93
2018-04-01T02:43:07.681Z,98177.41
2018-04-01T02:45:33.633Z,98177.06
2018-04-01T02:47:59.571Z,98176.38
2018-04-01T02:50:25.506Z,98185.41
2018-04-01T02:52:51.467Z,98182.32
2018-04-01T02:55:17.540Z,98186.23
2018-04-01T02:57:43.459Z,98186.30
2018-04-01T03:00:09.403Z,98182.88
2018-04-01T03:02:35.319Z,98187.48
2018-04-01T03:05:01.243Z,98195.94
2018-04-01T03:07:27.158Z,98198.39
2018-04-01T03:09:53.106Z,98194.77
2018-04-01T03:12:19.059Z,98197.36
2018-04-01T03:14:44.978Z,98204.88
2018-04-01T03:17:10.908Z,98196.70
2018-04-01T03:19:36.855Z,98195.76
2018-04-01T03:22:02.803Z,98199.89
2018-04-01T03:24:28.728Z,98194.78
2018-04-01T03:26:54.692Z,98199.98
2018-04-01T03:29:20.635Z,98193.59
2018-04-01T03:31:46.576Z,98205.13
2018-04-01T03:34:12.515Z,98204.26
2018-04-01T03:36:38.445Z,98201.66
2018-04-01T03:39:04.404Z,98208.75
2018-04-01T03:41:30.362Z,98207.17
2018-04-01T03:43:56.281Z,98207.61
2018-04-01T03:46:22.313Z,98218.34
2018-04-01T03:48:48.232Z,98220.08
2018-04-01T03:51:14.297Z,98220.03
2018-04-01T03:53:40.225Z,98220.99
2018-04-01T03:56:06.157Z,98221.44
2018-04-01T03:58:32.101Z,98234.39
2018-04-01T04:00:58.025Z,98218.56
2018-04-01T04:03:23.962Z,98237.24
2018-04-01T04:05:49.879Z,98239.06
2018-04-01T04:08:15.833Z,98239.50
2018-04-01T04:10:41.775Z,98243.27
2018-04-01T04:13:07.713Z,98250.81
2018-04-01T04:15:33.636Z,98243.66
2018-04-01T04:17:59.613Z,98249.50
2018-04-01T04:20:25.551Z,98268.71
2018-04-01T04:22:51.479Z,98261.13
2018-04-01T04:25:17.401Z,98269.19
2018-04-01T04:27:43.324Z,98274.28
2018-04-01T04:30:09.281Z,98272.52
2018-04-01T04:32:35.263Z,98270.32
2018-04-01T04:35:01.227Z,98267.50
2018-04-01T04:37:27.155Z,98273.02
2018-04-01T04:39:53.098Z,98273.61
2018-04-01T04:42:19.039Z,98274.66
2018-04-01T04:44:45.001Z,98283.88
2018-04-01T04:47:10.951Z,98287.98
2018-04-01T04:49:36.996Z,98294.18
2018-04-01T04:52:02.917Z,98270.91
2018-04-01T04:54:28.863Z,98293.33
2018-04-01T04:56:54.787Z,98304.67
2018-04-01T04:59:20.711Z,98300.93
2018-04-01T05:01:46.645Z,98305.98
2018-04-01T05:04:12.599Z,98308.89
2018-04-01T05:06:38.545Z,98310.11
2018-04-01T05:09:04.457Z,98314.80
2018-04-01T05:11:30.393Z,98312.30
2018-04-01T05:13:56.363Z,98321.02
2018-04-01T05:16:22.292Z,98319.81
2018-04-01T05:18:48.261Z,98319.26
2018-04-01T05:21:14.260Z,98318.11
2018-04-01T05:23:40.303Z,98320.21
2018-04-01T05:26:06.269Z,98333.05
2018-04-01T05:28:32.201Z,98336.03
2018-04-01T05:30:58.170Z,98337.36
2018-04-01T05:33:24.093Z,98346.91
2018-04-01T05:35:50.062Z,98346.37
2018-04-01T05:38:15.989Z,98351.97
2018-04-01T05:40:41.975Z,98352.40
2018-04-01T05:43:07.939Z,98357.30
2018-04-01T05:45:33.863Z,98362.75
2018-04-01T05:47:59.818Z,98360.36
2018-04-01T05:50:25.789Z,98357.00
2018-04-01T05:52:51.745Z,98365.32
2018-04-01T05:55:17.806Z,98356.08
2018-04-01T05:57:43.724Z,98366.10
2018-04-01T06:00:09.730Z,98365.27
2018-04-01T06:02:35.673Z,98366.97
2018-04-01T06:05:01.629Z,98369.05
2018-04-01T06:07:27.607Z,98372.83
2018-04-01T06:09:53.521Z,98367.83
2018-04-01T06:12:19.528Z,98373.24
2018-04-01T06:14:45.456Z,98367.42
2018-04-01T06:17:11.422Z,98374.12
2018-04-01T06:19:37.404Z,98377.87
2018-04-01T06:22:03.338Z,98380.35
2018-04-01T06:24:29.350Z,98380.81
2018-04-01T06:26:55.296Z,98386.23
2018-04-01T06:29:21.258Z,98382.48
2018-04-01T06:31:47.177Z,98380.02
2018-04-01T06:34:13.093Z,98384.55
2018-04-01T06:36:39.019Z,98392.83
2018-04-01T06:39:04.944Z,98384.83
2018-04-01T06:41:30.898Z,98386.50
2018-04-01T06:43:56.817Z,98390.35
2018-04-01T06:46:22.862Z,98392.78
2018-04-01T06:48:48.813Z,98389.94
2018-04-01T06:51:14.790Z,98392.69
2018-04-01T06:53:40.745Z,98389.27
2018-04-01T06:56:06.770Z,98393.42
2018-04-01T06:58:32.759Z,98400.10
2018-04-01T07:00:58.716Z,98392.66
2018-04-01T07:03:24.664Z,98391.40
2018-04-01T07:05:50.626Z,98398.95
2018-04-01T07:08:16.566Z,98395.95
2018-04-01T07:10:42.522Z,98402.30
2018-04-01T07:13:08.506Z,98402.69
2018-04-01T07:15:34.466Z,98403.95
2018-04-01T07:18:00.426Z,98403.98
2018-04-01T07:20:26.364Z,98403.23
2018-04-01T07:22:52.338Z,98397.72
2018-04-01T07:25:18.302Z,98397.66
2018-04-01T07:27:44.292Z,98406.36
2018-04-01T07:30:10.252Z,98404.83
2018-04-01T07:32:36.183Z,98406.95
2018-04-01T07:35:02.143Z,98411.47
2018-04-01T07:37:28.096Z,98412.69
2018-04-01T07:39:54.070Z,98410.25
2018-04-01T07:42:20.012Z,98419.84
2018-04-01T07:44:45.982Z,98416.89
2018-04-01T07:47:11.946Z,98429.58
2018-04-01T07:49:37.914Z,98429.16
2018-04-01T07:52:03.864Z,98437.45
2018-04-01T07:54:29.849Z,98436.61
2018-04-01T07:56:55.778Z,98442.42
2018-04-01T07:59:21.735Z,98439.16
2018-04-01T08:01:47.679Z,98435.58
2018-04-01T08:04:13.643Z,98440.36
2018-04-01T08:06:39.641Z,98445.48
2018-04-01T08:09:05.550Z,98429.94
2018-04-01T08:11:31.524Z,98432.06
2018-04-01T08:13:57.442Z,98441.55
2018-04-01T08:16:23.406Z,98441.19
2018-04-01T08:18:49.352Z,98449.58
2018-04-01T08:21:15.323Z,98447.48
2018-04-01T08:23:41.275Z,98447.16
2018-04-01T08:26:07.248Z,98445.91
2018-04-01T08:28:33.209Z,98462.56
2018-04-01T08:30:59.184Z,98468.78
2018-04-01T08:33:25.122Z,98472.91
2018-04-01T08:35:51.096Z,98472.50
2018-04-01T08:38:17.036Z,98479.59
2018-04-01T08:40:42.968Z,98487.95
2018-04-01T08:43:08.914Z,98475.84
2018-04-01T08:45:34.838Z,98491.70
2018-04-01T08:48:00.756Z,98502.53
2018-04-01T08:50:26.691Z,98485.03
2018-04-01T08:52:52.834Z,98491.34
2018-04-01T08:55:18.872Z,98496.38
2018-04-01T08:57:44.838Z,98489.78
2018-04-01T09:00:10.801Z,98497.25
2018-04-01T09:02:36.740Z,98510.19
2018-04-01T09:05:02.686Z,98515.63
2018-04-01T09:07:28.616Z,98504.84
2018-04-01T09:09:54.568Z,98496.50
2018-04-01T09:12:20.515Z,98506.56
2018-04-01T09:14:46.459Z,98513.12
2018-04-01T09:17:12.417Z,98516.81
2018-04-01T09:19:38.345Z,98528.94
2018-04-01T09:22:04.272Z,98529.07
2018-04-01T09:24:30.523Z,98525.88
2018-04-01T09:26:56.465Z,98524.01
2018-04-01T09:29:22.393Z,98536.97
2018-04-01T09:31:48.319Z,98539.05
2018-04-01T09:34:14.281Z,98549.10
2018-04-01T09:36:40.197Z,98551.59
2018-04-01T09:39:06.164Z,98558.73
2018-04-01T09:41:32.100Z,98570.02
2018-04-01T09:43:58.031Z,98561.69
2018-04-01T09:46:23.997Z,98562.94
2018-04-01T09:48:49.959Z,98577.97
2018-04-01T09:51:15.941Z,98570.89
2018-04-01T09:53:41.873Z,98574.66
2018-04-01T09:56:07.792Z,98578.42
2018-04-01T09:58:33.729Z,98584.26
2018-04-01T10:00:59.701Z,98583.81
2018-04-01T10:03:25.627Z,98588.46
2018-04-01T10:05:51.802Z,98596.38
2018-04-01T10:08:17.755Z,98595.53
2018-04-01T10:10:43.699Z,98594.27
2018-04-01T10:13:09.646Z,98599.69
2018-04-01T10:15:35.622Z,98596.36
2018-04-01T10:18:01.577Z,98582.94
2018-04-01T10:20:27.514Z,98588.36
2018-04-01T10:22:53.436Z,98601.34
2018-04-01T10:25:19.377Z,98597.66
2018-04-01T10:27:45.344Z,98608.06
2018-04-01T10:30:11.321Z,98608.08
2018-04-01T10:32:37.328Z,98595.52
2018-04-01T10:35:03.237Z,98608.08
2018-04-01T10:37:29.200Z,98599.32
2018-04-01T10:39:55.133Z,98595.98
2018-04-01T10:42:21.077Z,98619.33
2018-04-01T10:44:47.009Z,98603.86
2018-04-01T10:47:12.943Z,98613.89
2018-04-01T10:49:38.889Z,98608.45
2018-04-01T10:52:04.853Z,98612.55
2018-04-01T10:54:30.844Z,98616.78
2018-04-01T10:56:56.760Z,98611.30
2018-04-01T10:59:23.011Z,98624.37
2018-04-01T11:01:48.959Z,98610.14
2018-04-01T11:04:14.916Z,98600.06
2018-04-01T11:06:40.837Z,98602.53
2018-04-01T11:09:06.754Z,98617.59
2018-04-01T11:11:32.722Z,98613.81
2018-04-01T11:13:58.668Z,98616.77
2018-04-01T11:16:24.654Z,98615.92
2018-04-01T11:18:50.580Z,98622.28
2018-04-01T11:21:16.541Z,98616.40
2018-04-01T11:23:42.477Z,98618.08
2018-04-01T11:26:08.459Z,98611.83
2018-04-01T11:28:34.376Z,98619.78
2018-04-01T11:31:00.298Z,98609.76
2018-04-01T11:33:26.242Z,98615.59
2018-04-01T11:35:53.255Z,98618.08
2018-04-01T11:38:19.294Z,98620.58
2018-04-01T11:40:45.246Z,98629.82
2018-04-01T11:43:11.196Z,98618.91
2018-04-01T11:45:37.130Z,98620.97
2018-04-01T11:48:03.063Z,98618.48
2018-04-01T11:50:29.004Z,98630.22
2018-04-01T11:52:54.954Z,98628.14
2018-04-01T11:55:20.874Z,98637.33
2018-04-01T11:57:46.794Z,98646.55
2018-04-01T12:00:12.747Z,98644.44
2018-04-01T12:02:38.719Z,98641.91
2018-04-01T12:05:04.945Z,98653.20
2018-04-01T12:07:30.862Z,98659.91
2018-04-01T12:09:56.778Z,98658.61
2018-04-01T12:12:22.735Z,98668.25
2018-04-01T12:14:48.834Z,98672.46
2018-04-01T12:17:15.031Z,98669.91
2018-04-01T12:19:40.977Z,98674.91
2018-04-01T12:22:06.924Z,98670.76
2018-04-01T12:24:32.923Z,98665.34
2018-04-01T12:26:58.888Z,98671.98
2018-04-01T12:29:24.873Z,98663.67
2018-04-01T12:31:51.212Z,98664.92
2018-04-01T12:34:17.225Z,98670.33
2018-04-01T12:36:43.151Z,98673.27
2018-04-01T12:39:09.099Z,98669.84
2018-04-01T12:41:35.066Z,98668.63
2018-04-01T12:44:01.015Z,98662.38
2018-04-01T12:46:26.952Z,98669.02
2018-04-01T12:48:52.902Z,98670.30
2018-04-01T12:51:18.828Z,98671.17
2018-04-01T12:53:44.821Z,98672.38
2018-04-01T12:56:11.874Z,98670.70
2018-04-01T12:58:37.831Z,98663.52
2018-04-01T13:01:03.809Z,98671.90
2018-04-01T13:03:29.805Z,98669.42
2018-04-01T13:05:55.845Z,98671.97
2018-04-01T13:08:21.799Z,98675.75
2018-04-01T13:10:47.748Z,98671.49
2018-04-01T13:13:13.698Z,98677.82
2018-04-01T13:15:39.627Z,98669.03
2018-04-01T13:18:05.594Z,98678.66
2018-04-01T13:20:31.549Z,98681.52
2018-04-01T13:22:57.499Z,98686.17
2018-04-01T13:25:23.417Z,98701.30
2018-04-01T13:27:49.346Z,98701.23
2018-04-01T13:30:15.271Z,98696.63
2018-04-01T13:32:41.193Z,98704.16
2018-04-01T13:35:07.165Z,98698.30
2018-04-01T13:37:33.098Z,98695.36
2018-04-01T13:39:59.063Z,98707.09
2018-04-01T13:42:25.000Z,98701.20
2018-04-01T13:44:50.917Z,98707.95
2018-04-01T13:47:16.861Z,98705.79
2018-04-01T13:49:42.810Z,98710.86
2018-04-01T13:52:08.750Z,98707.89
2018-04-01T13:54:34.698Z,98717.56
2018-04-01T13:57:00.630Z,98710.84
2018-04-01T13:59:26.653Z,98716.77
2018-04-01T14:01:52.574Z,98710.87
2018-04-01T14:04:18.528Z,98717.54
2018-04-01T14:06:44.706Z,98724.67
2018-04-01T14:09:10.647Z,98724.27
2018-04-01T14:11:36.595Z,98725.53
2018-04-01T14:14:02.523Z,98725.84
2018-04-01T14:16:28.614Z,98742.64
2018-04-01T14:18:54.532Z,98735.55
2018-04-01T14:21:20.468Z,98723.80
2018-04-01T14:23:46.388Z,98739.66
2018-04-01T14:26:12.328Z,98742.67
2018-04-01T14:28:38.262Z,98748.95
2018-04-01T14:31:04.208Z,98752.27
2018-04-01T14:33:30.138Z,98758.08
2018-04-01T14:35:56.087Z,98753.45
2018-04-01T14:38:22.034Z,98760.15
2018-04-01T14:40:47.958Z,98764.41
2018-04-01T14:43:13.918Z,98768.55
2018-04-01T14:45:39.824Z,98774.84
2018-04-01T14:48:05.880Z,98768.17
2018-04-01T14:50:31.946Z,98770.28
2018-04-01T14:52:57.942Z,98776.56
2018-04-01T14:55:23.874Z,98779.49
2018-04-01T14:57:49.888Z,98771.55
2018-04-01T15:00:15.825Z,98772.78
2018-04-01T15:02:41.766Z,98776.13
2018-04-01T15:05:07.700Z,98776.12
2018-04-01T15:07:33.667Z,98779.06
2018-04-01T15:09:59.605Z,98779.03
2018-04-01T15:12:25.595Z,98783.62
2018-04-01T15:14:51.548Z,98773.59
2018-04-01T15:17:17.468Z,98784.53
2018-04-01T15:19:43.426Z,98784.06
2018-04-01T15:22:09.341Z,98781.59
2018-04-01T15:24:35.308Z,98787.02
2018-04-01T15:27:01.261Z,98788.30
2018-04-01T15:29:27.200Z,98790.39
2018-04-01T15:31:53.179Z,98788.67
2018-04-01T15:34:19.118Z,98794.56
2018-04-01T15:36:45.092Z,98807.97
2018-04-01T15:39:11.059Z,98810.48
2018-04-01T15:41:37.010Z,98809.63
2018-04-01T15:44:02.974Z,98812.57
2018-04-01T15:46:28.930Z,98806.73
2018-04-01T15:48:55.885Z,98806.72
2018-04-01T15:51:22.021Z,98806.73
2018-04-01T15:53:48.013Z,98817.15
2018-04-01T15:56:13.953Z,98820.51
2018-04-01T15:58:39.906Z,98816.73
2018-04-01T16:01:05.833Z,98817.18
2018-04-01T16:03:31.965Z,98807.99
2018-04-01T16:05:57.935Z,98816.34
2018-04-01T16:08:23.920Z,98811.32
2018-04-01T16:10:49.883Z,98797.52
2018-04-01T16:13:15.801Z,98822.64
2018-04-01T16:15:41.733Z,98810.50
2018-04-01T16:18:07.771Z,98824.28
2018-04-01T16:20:33.692Z,98823.89
2018-04-01T16:22:59.637Z,98824.71
2018-04-01T16:25:25.563Z,98827.66
2018-04-01T16:27:51.515Z,98821.37
2018-04-01T16:30:17.451Z,98833.48
2018-04-01T16:32:43.413Z,98837.26
2018-04-01T16:35:09.362Z,98838.55
2018-04-01T16:37:35.309Z,98851.06
2018-04-01T16:40:01.281Z,98851.09
2018-04-01T16:42:27.357Z,98850.25
2018-04-01T16:44:53.287Z,98852.34
2018-04-01T16:47:19.417Z,98853.19
2018-04-01T16:49:45.352Z,98859.02
2018-04-01T16:52:11.310Z,98861.56
2018-04-01T16:54:37.240Z,98870.34
2018-04-01T16:57:03.178Z,98866.98
2018-04-01T16:59:29.163Z,98873.28
2018-04-01T17:01:55.177Z,98873.28
2018-04-01T17:04:21.138Z,98878.31
2018-04-01T17:06:47.063Z,98879.97
2018-04-01T17:09:13.054Z,98880.41
2018-04-01T17:11:39.000Z,98884.58
2018-04-01T17:14:04.922Z,98881.66
2018-04-01T17:16:30.872Z,98890.87
2018-04-01T17:18:56.838Z,98896.30
2018-04-01T17:21:22.803Z,98908.45
2018-04-01T17:23:48.958Z,98903.42
2018-04-01T17:26:14.902Z,98909.28
2018-04-01T17:28:40.825Z,98906.76
2018-04-01T17:31:06.741Z,98915.98
2018-04-01T17:33:32.686Z,98917.25
2018-04-01T17:35:58.640Z,98925.61
2018-04-01T17:38:24.608Z,98928.89
2018-04-01T17:40:50.575Z,98929.37
2018-04-01T17:43:16.496Z,98933.97
2018-04-01T17:45:42.466Z,98930.22
2018-04-01T17:48:08.502Z,98941.91
2018-04-01T17:50:34.432Z,98947.38
2018-04-01T17:53:00.362Z,98939.41
2018-04-01T17:55:26.275Z,98945.69
2018-04-01T17:57:52.189Z,98966.61
2018-04-01T18:00:18.133Z,98967.05
2018-04-01T18:02:44.078Z,98972.84
2018-04-01T18:05:10.024Z,98976.64
2018-04-01T18:07:35.970Z,98978.72
2018-04-01T18:10:01.926Z,98990.42
2018-04-01T18:12:27.940Z,98989.61
2018-04-01T18:14:53.866Z,98998.83
2018-04-01T18:17:19.803Z,98995.50
2018-04-01T18:19:45.765Z,98999.67
2018-04-01T18:22:11.694Z,99006.34
2018-04-01T18:24:37.616Z,99013.47
2018-04-01T18:27:04.521Z,99007.22
2018-04-01T18:29:30.462Z,99023.48
2018-04-01T18:31:56.430Z,99023.88
2018-04-01T18:34:22.384Z,99018.87
2018-04-01T18:36:48.310Z,99026.03
2018-04-01T18:39:14.367Z,99021.42
2018-04-01T18:41:40.307Z,99025.59
2018-04-01T18:44:06.256Z,99028.09
2018-04-01T18:46:32.196Z,99039.30
2018-04-01T18:48:58.130Z,99040.19
2018-04-01T18:51:24.049Z,99036.06
2018-04-01T18:53:50.001Z,99041.08
2018-04-01T18:56:15.938Z,99041.08
2018-04-01T18:58:41.876Z,99043.13
2018-04-01T19:01:07.916Z,99049.84
2018-04-01T19:03:33.816Z,99049.85
2018-04-01T19:05:59.759Z,99055.30
2018-04-01T19:08:25.708Z,99059.07
2018-04-01T19:10:51.637Z,99058.16
2018-04-01T19:13:17.582Z,99059.41
2018-04-01T19:15:43.518Z,99057.30
2018-04-01T19:18:09.438Z,99061.88
2018-04-01T19:20:35.360Z,99062.38
2018-04-01T19:23:01.279Z,99061.13
2018-04-01T19:25:27.194Z,99068.22
2018-04-01T19:27:53.114Z,99068.24
2018-04-01T19:30:19.060Z,99072.11
2018-04-01T19:32:45.007Z,99082.55
2018-04-01T19:35:10.935Z,99079.14
2018-04-01T19:37:36.885Z,99083.34
2018-04-01T19:40:02.897Z,99079.21
2018-04-01T19:42:28.754Z,99080.84
2018-04-01T19:44:54.692Z,99078.68
2018-04-01T19:47:20.645Z,99078.61
2018-04-01T19:49:46.609Z,99084.59
2018-04-01T19:52:12.547Z,99090.91
2018-04-01T19:54:38.592Z,99082.05
2018-04-01T19:57:04.635Z,99088.75
2018-04-01T19:59:30.541Z,99094.09
2018-04-01T20:01:56.502Z,99092.50
2018-04-01T20:04:22.470Z,99093.23
2018-04-01T20:06:48.406Z,99100.47
2018-04-01T20:09:14.345Z,99104.14
2018-04-01T20:11:40.534Z,99102.50
2018-04-01T20:14:06.547Z,99108.89
2018-04-01T20:16:32.453Z,99112.61
2018-04-01T20:18:58.391Z,99106.68
2018-04-01T20:21:24.415Z,99115.08
2018-04-01T20:23:50.440Z,99117.70
2018-04-01T20:26:16.373Z,99118.47
2018-04-01T20:28:42.313Z,99110.55
2018-04-01T20:31:08.251Z,99120.90
2018-04-01T20:33:34.197Z,99116.23
2018-04-01T20:36:00.149Z,99125.50
2018-04-01T20:38:26.101Z,99133.84
2018-04-01T20:40:52.099Z,99128.15
2018-04-01T20:43:18.018Z,99139.92
2018-04-01T20:45:43.991Z,99148.66
2018-04-01T20:48:09.934Z,99139.04
2018-04-01T20:50:35.867Z,99146.56
2018-04-01T20:53:01.795Z,99147.78
2018-04-01T20:55:27.745Z,99141.16
2018-04-01T20:57:53.686Z,99154.53
2018-04-01T21:00:19.607Z,99158.31
2018-04-01T21:02:45.554Z,99154.09
2018-04-01T21:05:11.493Z,99161.11
2018-04-01T21:07:37.483Z,99162.37
2018-04-01T21:10:03.408Z,99157.33
2018-04-01T21:12:29.363Z,99159.88
2018-04-01T21:14:55.298Z,99173.74
2018-04-01T21:17:21.258Z,99171.19
2018-04-01T21:19:47.192Z,99179.14
2018-04-01T21:22:13.139Z,99171.08
2018-04-01T21:24:39.133Z,99171.50
2018-04-01T21:27:05.060Z,99173.71
2018-04-01T21:29:30.982Z,99171.52
2018-04-01T21:31:56.934Z,99177.29
2018-04-01T21:34:22.902Z,99176.19
2018-04-01T21:36:48.854Z,99182.09
2018-04-01T21:39:14.850Z,99185.41
2018-04-01T21:41:40.796Z,99190.88
2018-04-01T21:44:06.754Z,99186.24
2018-04-01T21:46:32.698Z,99184.95
2018-04-01T21:48:58.632Z,99190.83
2018-04-01T21:51:24.580Z,99196.58
2018-04-01T21:53:50.496Z,99202.03
2018-04-01T21:56:16.448Z,99202.63
2018-04-01T21:58:42.372Z,99207.42
2018-04-01T22:01:08.326Z,99207.81
2018-04-01T22:03:34.266Z,99206.19
2018-04-01T22:06:00.197Z,99209.53
2018-04-01T22:08:26.142Z,99215.53
2018-04-01T22:10:52.078Z,99210.02
2018-04-01T22:13:18.085Z,99208.82
2018-04-01T22:15:44.026Z,99212.84
2018-04-01T22:18:10.259Z,99213.81
2018-04-01T22:20:36.179Z,99209.13
2018-04-01T22:23:02.129Z,99208.62
2018-04-01T22:25:28.085Z,99211.27
2018-04-01T22:27:54.002Z,99215.82
2018-04-01T22:30:19.986Z,99217.62
2018-04-01T22:32:45.958Z,99222.22
2018-04-01T22:35:12.152Z,99217.21
2018-04-01T22:37:38.065Z,99221.41
2018-04-01T22:40:03.991Z,99226.31
2018-04-01T22:42:29.922Z,99219.44
2018-04-01T22:44:55.871Z,99221.78
2018-04-01T22:47:21.859Z,99227.38
2018-04-01T22:49:47.786Z,99224.59
2018-04-01T22:52:13.730Z,99224.64
2018-04-01T22:54:39.672Z,99224.45
2018-04-01T22:57:05.630Z,99231.98
2018-04-01T22:59:31.571Z,99231.86
2018-04-01T23:01:57.713Z,99228.69
2018-04-01T23:04:23.658Z,99228.97
2018-04-01T23:06:49.589Z,99234.68
2018-04-01T23:09:15.539Z,99240.91
2018-04-01T23:11:41.463Z,99244.20
2018-04-01T23:14:07.392Z,99235.09
2018-04-01T23:16:33.316Z,99246.80
2018-04-01T23:18:59.559Z,99246.16
2018-04-01T23:21:25.489Z,99244.64
2018-04-01T23:23:51.415Z,99252.17
2018-04-01T23:26:17.349Z,99249.05
2018-04-01T23:28:43.312Z,99259.32
2018-04-01T23:31:09.244Z,99256.80
2018-04-01T23:33:35.191Z,99243.31
2018-04-01T23:36:01.129Z,99258.66
2018-04-01T23:38:27.077Z,99254.84
2018-04-01T23:40:53.015Z,99258.80
2018-04-01T23:43:18.961Z,99265.42
2018-04-01T23:45:45.137Z,99267.58
2018-04-01T23:48:11.082Z,99257.91
2018-04-01T23:50:37.007Z,99264.23
2018-04-01T23:53:02.932Z,99253.34
2018-04-01T23:55:28.877Z,99260.08
2018-04-01T23:57:55.034Z,99261.52
